Wales, AK

3:17 PM AKDT on September 02, 2014 (GMT -0800)
Tin City LRRS | Change Station
CLOSE
Current Station
Airport
Location: Tin City,
Elevation: 272 ft
Nearby Weather Stations

Elev 272 ft 65.56 °N, 167.92 °W | Updated 22 minutes ago

Mostly Cloudy
Mostly Cloudy
43 °F
Feels Like 39 °F
N
8
Wind Variable Wind from West

Today
High -- | Low -- °F
--% Chance of Precip.
Yesterday
High -- | Low -- °F
Precip. -- in
7:52 AM 10:27 PM
First Quarter, 56% visible
Pressure 29.96 in
Visibility 10.0 miles
Clouds Mostly Cloudy 4900 ft
Windchill 39 °F
Dew Point 34 °F
Humidity 70%
Rainfall 0.00 in
Snow Depth Not available.
UV 2 out of 12
Pollen Not available.
Air Quality Not available.
Flu Activity Not available.
METAR PATC 022255Z AUTO 28007KT 10SM BKN049 06/01 A2995 RMK AO2 SLP145 T00630012

More Conditions Fewer Conditions

Pressure 29.96 in
Visibility 10.0 miles
Clouds Mostly Cloudy 4900 ft
Windchill 39 °F
Dew Point 34 °F
Humidity 70%
Rainfall 0.00 in
Snow Depth Not available.
UV 2 out of 12
Pollen Not available.
Air Quality Not available.
Flu Activity Not available.
METAR PATC 022255Z AUTO 28007KT 10SM BKN049 06/01 A2995 RMK AO2 SLP145 T00630012

More Conditions Fewer Conditions

10-Day Weather Forecast

Almanac

Astronomy

Sep. 02, 2014 Rise Set
Actual Time 7:52 AM AKDT 10:27 PM AKDT
Civil Twilight 6:56 AM AKDT 11:23 PM AKDT
Nautical Twilight 5:35 AM AKDT 12:42 AM AKDT
Astronomical Twilight 3:43 AM AKDT 2:38 AM AKDT
Moon 6:48 PM AKDT No Moon Set
Length of Visible Light 16h 27m
Length of Day
14h 34m
Tomorrow will be 6m 58s shorter.
First Quarter, 56% of the Moon is Illuminated
Today
First Quarter
Sep 8
Full
Sep 15
Last Quarter
Sep 24
New
Oct 1
First Quarter

Today's Extremes

State Highs State Lows

Community

WunderPhotos

Upload Photos

1,749,794 photos uploaded!

Nearby

Snow Depth

Station Depth Elevation
Rocky Point 5 in 500 ft
Gobblers Knob 0 in 2030 ft
Coldfoot 1 in 1040 ft
Atigun Pass 8 in 4800 ft
Imnaviat Creek 94 in 3050 ft

Earthquake Activity

City Distance Mag. Time & Date
No recent earthquake activity has been reported nearby.
Minimum magnitude displayed is 2.5.

Coastal Water Temperatures

Place Temperature
No Stations Reporting

Nearby Weather Stations